CURRENT TEMPERATURE

METAR

Date:      Time:        

Showing Weather of: 0000 UTC (+5 PST) of dated 5/16/2021

STATION UPLOADED TIME METAR DATA
NAME CODE
Badin OPBDN 5:03:11 AM OPBDN 16000Z 23002KT 8000 NSC 26/23 Q1000 RH80%=
Dadu OPDU 5:03:11 AM OPDU 160000Z 00000KT 6000 HZ NSC 27/17 RH53% OPGD 160000Z 00000KT 1000 BR FEW020 27/26 Q1001 RH96%=
Jacobabad OPJD
KARACHI A/P OPKC 5:03:11 AM OPKC 151600Z 00000KT 6000 NSC 29/25 Q1001 RH78%=
Hyderabad OPKD 5:03:11 AM OPKD 160000Z 36004KT 6000 NSC 30/21 Q1001 RH59%=
Chhor OPKE
Larkana OPLRK 5:03:11 AM OPLRK 160000 05006KT 6000 CBFEW SCT040 SCT100 26/18 Q1004 RH62%=
Mithi OPMIT
Moen-jo-Daro OPMJ 5:03:11 AM OPMJ 160000Z 05004KT 6000 NSC 26/19 Q1001 RH66% NOSIG =
Mirpurkhas OPMPK 5:03:11 AM OPMPK 160000 00000KT 7000 SCT100 26/23 Q1002 RH84%=
Nawabshah OPNH 5:03:11 AM OPNH 160000Z 01804KT 3000 HZ NSC 26/20 Q1000 RH69% NOSIG=
Padidan OPPDN 5:03:11 AM OPPDN 160000 36004KT 5000 NSC 26/19 Q1002 RH63%=
Rohri OPRRI 5:03:11 AM OPRRI 160000 13504KT 6000 HZ SCT 100 31/19 PIPI 9932=
Sukkur OPSK 5:03:11 AM OPSK 160000Z 05004KT 4000 HZ NSC 28/17 Q1001 RH51% NOSIG=
Sukrand OPSKD 5:03:11 AM OPSKD 160000 13004KT 4000 HZ NSC 27/19 RH63%=
Tando-Jam OPTJM 5:15:27 AM OPTJM 160000 00000KT 6000 SKC 26/22 Q1004 RH76%=
LAST 24-HOURS WEATHER
Uzair Ahmed Qureshi